Time;durP1;ratioP1;P1;durP2;ratioP2;P2;SDS_P1;SDS_P2;PMS_P1;PMS_P2;Temp;Humidity;BMP_temperature;BMP_pressure;BME280_temperature;BME280_humidity;BME280_pressure;Samples;Min_cycle;Max_cycle;Signal;HPM_P1;HPM_P2
2021/12/09 05:04:09;;;;;;;50.38;20.23;;;;;;;;;;5752373;23;20081;-83
2021/12/09 05:06:37;;;;;;;51.60;20.30;;;;;;;;;;4884384;29;20032;-82
2021/12/09 05:09:10;;;;;;;48.92;19.20;;;;;;;;;;4868949;29;20013;-82
2021/12/09 05:14:15;;;;;;;52.42;19.45;;;;;;;;;;4885754;29;20038;-83
2021/12/09 05:40:01;;;;;;;53.25;21.25;;;;;;;;;;5850129;23;20110;-85
2021/12/09 06:06:31;;;;;;;60.53;23.23;;;;;;;;;;5047027;23;20076;-83
2021/12/09 06:09:00;;;;;;;59.97;22.75;;;;;;;;;;4927140;23;20037;-85
2021/12/09 06:11:27;;;;;;;61.42;23.48;;;;;;;;;;4886998;29;20013;-83
2021/12/09 06:13:58;;;;;;;60.55;23.40;;;;;;;;;;4903812;29;20086;-84
2021/12/09 06:16:25;;;;;;;58.15;23.15;;;;;;;;;;4885536;29;20005;-82
2021/12/09 06:18:54;;;;;;;59.60;23.88;;;;;;;;;;4886401;29;20013;-84
2021/12/09 06:26:43;;;;;;;64.93;23.85;;;;;;;;;;4950473;23;20069;-83
2021/12/09 06:29:13;;;;;;;55.17;22.83;;;;;;;;;;4887713;29;20118;-82
2021/12/09 06:31:39;;;;;;;62.75;24.20;;;;;;;;;;4904037;29;20029;-85
2021/12/09 06:57:24;;;;;;;55.05;23.10;;;;;;;;;;5846056;23;20095;-82
2021/12/09 07:02:28;;;;;;;57.60;22.08;;;;;;;;;;5769851;23;20033;-86
2021/12/09 07:04:56;;;;;;;60.42;23.65;;;;;;;;;;4905323;29;20002;-84
2021/12/09 07:07:27;;;;;;;57.17;21.88;;;;;;;;;;4887888;29;20023;-81
2021/12/09 07:33:08;;;;;;;60.28;23.10;;;;;;;;;;4962191;23;20041;-82
2021/12/09 07:35:39;;;;;;;58.35;22.83;;;;;;;;;;4906146;29;20029;-84
2021/12/09 07:38:07;;;;;;;58.42;22.58;;;;;;;;;;4889110;29;20038;-85
2021/12/09 07:40:36;;;;;;;60.45;22.70;;;;;;;;;;4885715;29;20041;-84
2021/12/09 07:43:02;;;;;;;56.85;23.92;;;;;;;;;;4885266;29;20093;-84
2021/12/09 07:45:29;;;;;;;59.17;23.10;;;;;;;;;;4903430;29;20028;-83
2021/12/09 07:47:59;;;;;;;61.28;23.45;;;;;;;;;;4885158;29;20032;-82
2021/12/09 07:50:28;;;;;;;57.60;23.00;;;;;;;;;;4882622;29;20054;-82
2021/12/09 07:52:53;;;;;;;62.63;23.73;;;;;;;;;;4880831;29;20033;-82
2021/12/09 07:55:20;;;;;;;60.50;24.20;;;;;;;;;;4900007;29;20029;-83
2021/12/09 07:57:46;;;;;;;59.45;22.90;;;;;;;;;;4885511;29;20021;-82
2021/12/09 08:00:13;;;;;;;54.28;22.98;;;;;;;;;;4905051;29;20019;-82
2021/12/09 08:02:43;;;;;;;60.63;23.27;;;;;;;;;;4879584;29;20089;-80
2021/12/09 08:05:12;;;;;;;56.55;23.30;;;;;;;;;;4879802;29;20028;-82
2021/12/09 08:07:37;;;;;;;;;;;;;;;;;;4897977;29;20052;-82
2021/12/09 08:10:04;;;;;;;53.25;21.73;;;;;;;;;;4885891;29;19898;-82
2021/12/09 08:12:30;;;;;;;60.13;22.60;;;;;;;;;;4901835;29;20037;-83
2021/12/09 08:14:57;;;;;;;57.35;23.85;;;;;;;;;;4884799;29;20040;-82
2021/12/09 08:20:07;;;;;;;55.78;22.75;;;;;;;;;;4905354;29;20013;-83
2021/12/09 08:22:33;;;;;;;54.60;22.77;;;;;;;;;;4904806;29;20012;-82
2021/12/09 08:24:58;;;;;;;64.75;23.60;;;;;;;;;;4905009;29;20053;-83
2021/12/09 08:27:28;;;;;;;61.90;23.98;;;;;;;;;;4902653;29;20069;-82
2021/12/09 08:30:01;;;;;;;59.78;22.88;;;;;;;;;;4889437;29;20036;-82
2021/12/09 08:35:04;;;;;;;60.75;22.67;;;;;;;;;;5739756;23;20072;-82
2021/12/09 08:37:30;;;;;;;57.63;21.63;;;;;;;;;;4886679;29;20034;-82
2021/12/09 08:39:56;;;;;;;59.38;21.98;;;;;;;;;;4980289;23;20036;-83
2021/12/09 08:42:22;;;;;;;57.95;22.90;;;;;;;;;;4889035;29;20081;-83
2021/12/09 08:44:48;;;;;;;62.97;23.17;;;;;;;;;;4904961;29;20049;-82
2021/12/09 08:47:17;;;;;;;62.63;23.67;;;;;;;;;;4888791;29;20025;-83
2021/12/09 08:49:49;;;;;;;;;;;;;;;;;;4889582;29;20093;-83
2021/12/09 08:52:14;;;;;;;54.03;21.80;;;;;;;;;;4889176;29;19912;-83
2021/12/09 08:54:43;;;;;;;61.13;22.90;;;;;;;;;;4905847;29;20023;-81
2021/12/09 08:57:10;;;;;;;57.00;22.40;;;;;;;;;;4905944;29;20025;-83
2021/12/09 08:59:37;;;;;;;59.95;22.98;;;;;;;;;;4905477;29;20072;-83
2021/12/09 09:02:07;;;;;;;53.15;22.13;;;;;;;;;;4889160;29;20009;-82
2021/12/09 09:04:33;;;;;;;81.45;27.50;;;;;;;;;;4889444;29;20037;-84
2021/12/09 11:31:51;;;;;;;87.70;31.20;;;;;;;;;;5819661;23;20020;-86
2021/12/09 11:49:56;;;;;;;83.72;28.48;;;;;;;;;;5698477;23;20043;-85
2021/12/09 14:11:54;;;;;;;76.68;29.80;;;;;;;;;;5506097;23;20104;-86
2021/12/09 14:22:09;;;;;;;84.03;28.55;;;;;;;;;;5668979;23;20029;-86
2021/12/09 14:42:58;;;;;;;81.13;28.55;;;;;;;;;;5595639;23;20067;-86
2021/12/09 15:01:05;;;;;;;67.10;28.15;;;;;;;;;;5678867;23;20029;-87
2021/12/09 16:42:39;;;;;;;81.50;28.63;;;;;;;;;;1804417;23;20247;-85
2021/12/09 16:52:53;;;;;;;66.43;25.27;;;;;;;;;;5329287;23;20048;-83
2021/12/09 16:55:19;;;;;;;69.88;25.40;;;;;;;;;;4940646;28;20024;-84
2021/12/09 16:57:51;;;;;;;82.07;27.92;;;;;;;;;;4938848;29;20076;-83
2021/12/09 17:00:27;;;;;;;77.22;27.92;;;;;;;;;;4941983;29;20052;-85
2021/12/09 17:02:55;;;;;;;81.38;28.73;;;;;;;;;;4924903;28;20102;-83
2021/12/09 17:05:24;;;;;;;70.73;28.00;;;;;;;;;;4923568;29;20113;-83
2021/12/09 17:07:51;;;;;;;82.45;29.70;;;;;;;;;;4922636;29;20040;-83
2021/12/09 17:10:18;;;;;;;82.85;30.23;;;;;;;;;;4922794;29;20021;-83
2021/12/09 17:12:44;;;;;;;74.60;27.33;;;;;;;;;;4921216;29;20079;-83
2021/12/09 17:15:14;;;;;;;87.10;29.17;;;;;;;;;;4919209;29;20033;-82
2021/12/09 17:17:41;;;;;;;78.07;30.40;;;;;;;;;;4910413;29;20028;-81
2021/12/09 17:20:08;;;;;;;86.68;30.95;;;;;;;;;;4910315;29;20024;-83
2021/12/09 17:22:33;;;;;;;79.75;29.33;;;;;;;;;;4912804;29;20064;-81
2021/12/09 17:25:02;;;;;;;75.30;28.17;;;;;;;;;;4917367;29;20017;-82
2021/12/09 17:27:30;;;;;;;;;;;;;;;;;;4916337;29;20032;-82
2021/12/09 17:30:05;;;;;;;91.37;27.47;;;;;;;;;;4915649;29;20297;-82
2021/12/09 17:32:30;;;;;;;82.93;28.67;;;;;;;;;;4913148;29;20061;-81
2021/12/09 17:34:56;;;;;;;74.90;27.42;;;;;;;;;;4908050;29;20024;-82
2021/12/09 17:37:22;;;;;;;83.68;29.55;;;;;;;;;;4912984;29;20020;-84
2021/12/09 17:39:49;;;;;;;85.95;30.25;;;;;;;;;;4918243;29;20081;-83
2021/12/09 17:42:16;;;;;;;87.80;29.50;;;;;;;;;;4915949;29;20029;-84
2021/12/09 17:44:45;;;;;;;84.13;28.73;;;;;;;;;;4916783;29;20323;-84
2021/12/09 17:47:12;;;;;;;79.63;29.00;;;;;;;;;;4917569;29;20410;-86
2021/12/09 17:49:42;;;;;;;86.45;31.52;;;;;;;;;;4917380;29;20048;-85
2021/12/09 17:52:35;;;;;;;87.78;29.80;;;;;;;;;;4918482;29;20069;-83
2021/12/09 17:54:55;;;;;;;95.00;31.70;;;;;;;;;;4919951;29;20044;-83
2021/12/09 17:57:28;;;;;;;91.13;27.63;;;;;;;;;;4915799;29;20028;-83
2021/12/09 17:59:57;;;;;;;86.40;27.50;;;;;;;;;;4909843;29;20021;-83
2021/12/09 18:02:23;;;;;;;90.20;26.30;;;;;;;;;;4913484;29;20024;-81
2021/12/09 18:04:49;;;;;;;77.30;26.80;;;;;;;;;;4915867;29;20024;-82
2021/12/09 18:07:15;;;;;;;98.65;27.15;;;;;;;;;;4914416;29;20023;-82
2021/12/09 18:09:41;;;;;;;78.18;26.15;;;;;;;;;;4916131;29;20041;-82
2021/12/09 18:12:10;;;;;;;81.22;25.17;;;;;;;;;;4914761;29;19997;-82
2021/12/09 18:14:35;;;;;;;81.13;26.90;;;;;;;;;;4913332;29;20032;-82
2021/12/09 18:17:12;;;;;;;82.68;27.05;;;;;;;;;;4911477;29;20021;-80
2021/12/09 18:19:38;;;;;;;79.38;26.10;;;;;;;;;;4911907;29;20021;-83
2021/12/09 18:22:04;;;;;;;82.88;26.33;;;;;;;;;;4919102;29;20045;-82
2021/12/09 18:24:30;;;;;;;79.63;25.42;;;;;;;;;;4916621;29;20031;-81
2021/12/09 18:26:59;;;;;;;69.05;23.55;;;;;;;;;;4917782;29;20063;-83
2021/12/09 18:29:26;;;;;;;83.72;26.80;;;;;;;;;;4915898;29;20052;-83
2021/12/09 18:31:52;;;;;;;75.72;24.17;;;;;;;;;;4916622;29;20028;-80
2021/12/09 18:34:18;;;;;;;75.68;25.80;;;;;;;;;;4915358;29;20021;-82
2021/12/09 18:36:45;;;;;;;77.53;25.70;;;;;;;;;;4915804;29;20088;-83
2021/12/09 18:39:13;;;;;;;79.68;25.33;;;;;;;;;;4916625;29;20051;-82
2021/12/09 18:41:41;;;;;;;79.93;24.25;;;;;;;;;;4917238;29;20025;-82
2021/12/09 18:44:08;;;;;;;71.88;22.73;;;;;;;;;;4918057;29;20009;-82
2021/12/09 18:46:34;;;;;;;72.68;23.77;;;;;;;;;;4921013;29;20073;-83
2021/12/09 18:49:00;;;;;;;79.57;26.45;;;;;;;;;;4920259;29;20016;-81
2021/12/09 18:51:28;;;;;;;69.25;22.33;;;;;;;;;;4921068;29;20004;-82
2021/12/09 18:53:55;;;;;;;72.72;25.02;;;;;;;;;;4921539;29;20040;-82
2021/12/09 18:56:22;;;;;;;73.32;24.25;;;;;;;;;;4921219;29;20072;-83
2021/12/09 18:58:48;;;;;;;72.25;25.25;;;;;;;;;;4921288;29;20008;-82
2021/12/09 19:01:14;;;;;;;69.68;24.95;;;;;;;;;;4922484;29;20052;-82
2021/12/09 19:03:40;;;;;;;65.32;23.85;;;;;;;;;;4922250;29;20040;-82
2021/12/09 19:06:10;;;;;;;76.68;24.15;;;;;;;;;;4922376;29;20008;-82
2021/12/09 19:08:40;;;;;;;61.80;23.58;;;;;;;;;;4922404;29;20035;-83
2021/12/09 19:11:07;;;;;;;62.83;25.27;;;;;;;;;;4922298;29;20020;-82
2021/12/09 19:13:37;;;;;;;79.45;27.27;;;;;;;;;;4922347;29;20008;-83
2021/12/09 19:16:03;;;;;;;76.30;26.38;;;;;;;;;;4920898;29;20045;-83
2021/12/09 19:18:31;;;;;;;76.13;27.73;;;;;;;;;;4920687;29;20024;-82
2021/12/09 19:21:03;;;;;;;72.53;26.63;;;;;;;;;;4921787;29;20012;-82
2021/12/09 19:23:29;;;;;;;69.72;27.10;;;;;;;;;;4922006;29;20021;-83
2021/12/09 19:25:56;;;;;;;65.68;26.63;;;;;;;;;;4922553;29;20048;-83
2021/12/09 19:28:25;;;;;;;70.35;26.02;;;;;;;;;;4923983;29;20028;-82
2021/12/09 19:30:51;;;;;;;72.25;26.77;;;;;;;;;;4923918;29;20028;-84
2021/12/09 19:33:17;;;;;;;67.65;26.83;;;;;;;;;;4924316;29;20036;-84
2021/12/09 19:35:45;;;;;;;70.50;26.42;;;;;;;;;;4923395;29;20068;-83
2021/12/09 19:38:14;;;;;;;68.70;25.27;;;;;;;;;;4924564;29;20020;-83
2021/12/09 19:40:41;;;;;;;67.78;26.15;;;;;;;;;;4923638;29;20023;-83
2021/12/09 19:43:07;;;;;;;64.60;24.77;;;;;;;;;;4925275;29;20001;-84
2021/12/09 19:45:33;;;;;;;70.55;27.67;;;;;;;;;;4924925;29;20012;-82
2021/12/09 19:48:00;;;;;;;68.22;26.02;;;;;;;;;;4925823;29;20031;-83
2021/12/09 19:50:29;;;;;;;75.20;27.55;;;;;;;;;;4925669;29;20028;-83
2021/12/09 19:52:59;;;;;;;68.53;26.65;;;;;;;;;;4923903;29;20028;-83
2021/12/09 19:55:28;;;;;;;62.92;25.67;;;;;;;;;;4924162;29;20012;-83
2021/12/09 19:57:54;;;;;;;64.85;25.40;;;;;;;;;;4925056;29;20096;-83
2021/12/09 20:00:23;;;;;;;65.28;24.85;;;;;;;;;;4925099;29;20013;-83
2021/12/09 20:02:49;;;;;;;64.45;24.40;;;;;;;;;;4924617;29;20011;-82
2021/12/09 20:05:16;;;;;;;71.28;26.33;;;;;;;;;;4923352;29;20043;-83
2021/12/09 20:07:42;;;;;;;56.83;24.35;;;;;;;;;;4923963;29;20032;-82
2021/12/09 20:10:08;;;;;;;69.38;24.60;;;;;;;;;;4923214;29;20028;-83
2021/12/09 20:12:34;;;;;;;59.90;23.50;;;;;;;;;;4914965;29;20432;-84
2021/12/09 20:15:04;;;;;;;61.53;23.83;;;;;;;;;;4918262;29;20020;-82
2021/12/09 20:17:29;;;;;;;61.85;22.60;;;;;;;;;;4920248;29;20049;-82
2021/12/09 20:19:55;;;;;;;56.95;22.45;;;;;;;;;;4919658;29;20092;-83
2021/12/09 20:22:21;;;;;;;54.33;22.27;;;;;;;;;;4920233;29;20052;-82
2021/12/09 20:24:46;;;;;;;61.42;25.75;;;;;;;;;;4921444;29;20013;-83
2021/12/09 20:27:12;;;;;;;59.38;22.35;;;;;;;;;;4922643;29;20021;-83
2021/12/09 20:29:38;;;;;;;65.00;23.50;;;;;;;;;;4922110;29;20000;-83
2021/12/09 20:32:03;;;;;;;59.55;22.52;;;;;;;;;;4922188;29;20041;-84
2021/12/09 20:34:29;;;;;;;66.43;24.52;;;;;;;;;;4921196;29;20073;-83
2021/12/09 20:36:55;;;;;;;62.20;24.00;;;;;;;;;;4922577;29;20013;-82
2021/12/09 20:39:20;;;;;;;68.20;22.90;;;;;;;;;;4921522;29;20053;-83
2021/12/09 20:41:49;;;;;;;65.45;23.58;;;;;;;;;;4922494;29;20005;-83
2021/12/09 20:44:18;;;;;;;58.03;22.10;;;;;;;;;;4921869;29;20025;-83
2021/12/09 20:46:43;;;;;;;;;;;;;;;;;;4921619;29;20049;-83
2021/12/09 20:49:09;;;;;;;58.72;23.17;;;;;;;;;;4922831;29;19915;-82
2021/12/09 20:51:36;;;;;;;60.28;22.75;;;;;;;;;;4923022;29;20036;-83
2021/12/09 20:54:03;;;;;;;68.85;24.15;;;;;;;;;;4922802;29;20048;-84
2021/12/09 20:56:28;;;;;;;63.70;23.63;;;;;;;;;;4920685;29;20048;-83
2021/12/09 21:01:29;;;;;;;64.93;23.70;;;;;;;;;;4954920;23;20061;-83
2021/12/09 21:03:54;;;;;;;70.88;25.00;;;;;;;;;;4905309;29;20032;-83
2021/12/09 21:06:20;;;;;;;66.32;24.85;;;;;;;;;;4904827;29;20021;-83
2021/12/09 21:08:46;;;;;;;59.80;24.58;;;;;;;;;;4902007;29;20029;-83
2021/12/09 21:11:13;;;;;;;68.60;24.35;;;;;;;;;;4901224;29;20082;-82
2021/12/09 21:13:42;;;;;;;64.82;23.45;;;;;;;;;;4897466;29;20028;-83
2021/12/09 21:16:09;;;;;;;67.22;23.13;;;;;;;;;;4896551;29;20044;-83
2021/12/09 21:18:35;;;;;;;63.28;23.17;;;;;;;;;;4905048;29;20013;-83
2021/12/09 21:21:01;;;;;;;57.08;21.67;;;;;;;;;;4905186;29;20029;-83
2021/12/09 21:23:28;;;;;;;65.47;22.58;;;;;;;;;;4904680;29;20025;-83
2021/12/09 21:25:54;;;;;;;69.68;23.60;;;;;;;;;;4904529;29;20037;-83
2021/12/09 21:28:20;;;;;;;56.58;20.17;;;;;;;;;;4904947;29;20080;-83
2021/12/09 21:30:52;;;;;;;58.00;21.45;;;;;;;;;;4905785;29;20033;-82
2021/12/09 21:33:24;;;;;;;59.45;22.30;;;;;;;;;;4905154;29;20045;-84
2021/12/09 21:35:50;;;;;;;55.00;21.95;;;;;;;;;;4905577;29;20028;-83
2021/12/09 21:38:16;;;;;;;54.00;19.45;;;;;;;;;;4905019;29;20032;-83
2021/12/09 21:40:42;;;;;;;56.03;19.80;;;;;;;;;;4904644;29;20013;-82
2021/12/09 21:45:44;;;;;;;45.05;19.38;;;;;;;;;;4970498;23;20048;-83
2021/12/09 21:48:11;;;;;;;55.22;17.58;;;;;;;;;;4889116;29;20044;-83
2021/12/09 21:50:37;;;;;;;46.75;19.77;;;;;;;;;;4904326;29;20008;-82
2021/12/09 21:53:03;;;;;;;50.00;18.77;;;;;;;;;;4904373;29;20033;-83
2021/12/09 21:55:29;;;;;;;58.47;21.92;;;;;;;;;;4904324;29;20010;-84
2021/12/09 21:57:55;;;;;;;54.83;21.33;;;;;;;;;;4904434;29;20009;-83
2021/12/09 22:00:22;;;;;;;58.08;21.55;;;;;;;;;;4904691;29;20033;-82
2021/12/09 22:02:52;;;;;;;46.53;19.08;;;;;;;;;;4904000;29;20033;-84
2021/12/09 22:05:19;;;;;;;52.38;21.13;;;;;;;;;;4904443;29;20084;-84
2021/12/09 22:07:44;;;;;;;49.38;21.17;;;;;;;;;;4903740;29;20028;-82
2021/12/09 22:10:10;;;;;;;55.22;19.38;;;;;;;;;;4904525;29;20035;-83
2021/12/09 22:12:37;;;;;;;51.35;18.00;;;;;;;;;;4900618;29;20029;-84
2021/12/09 22:15:05;;;;;;;46.85;17.77;;;;;;;;;;4904208;29;20005;-83
2021/12/09 22:17:33;;;;;;;49.22;17.65;;;;;;;;;;4904530;29;20002;-83
2021/12/09 22:22:28;;;;;;;42.17;17.88;;;;;;;;;;4903733;29;20089;-82
2021/12/09 22:24:54;;;;;;;43.25;16.60;;;;;;;;;;5196620;23;20033;-83
2021/12/09 22:27:23;;;;;;;43.78;17.02;;;;;;;;;;4904163;29;20005;-84
2021/12/09 22:29:52;;;;;;;37.50;16.55;;;;;;;;;;5694513;23;20036;-82
2021/12/09 22:35:02;;;;;;;38.20;14.82;;;;;;;;;;5313585;23;19918;-84
2021/12/09 22:37:28;;;;;;;33.53;13.77;;;;;;;;;;4903581;29;20005;-83
2021/12/09 22:39:54;;;;;;;36.20;14.70;;;;;;;;;;4902815;29;20049;-84
2021/12/09 22:42:22;;;;;;;29.85;14.10;;;;;;;;;;4902588;29;20029;-82
2021/12/09 22:44:49;;;;;;;36.78;13.82;;;;;;;;;;4903866;29;20005;-82
2021/12/09 22:47:18;;;;;;;36.95;12.48;;;;;;;;;;4904012;29;20013;-84
2021/12/09 22:49:48;;;;;;;35.15;14.95;;;;;;;;;;5487714;23;20835;-85
